Horsholm, Denmark
Current Conditions -  °F | °C
As of 4:50 PM on Saturday 25 Oct 2014 (Local Time) from EKCH Reporting Station
Broken Clouds Broken Clouds  
Wind Chill: 11°   Ceiling: 800
Heat Index: 11°   Visibility: 4mi
Dew Point: 10°   Wind: 10mph
Humidity: 94%   Direction: 210°SSW
Pressure: 30.03"   Gusts: NA
Location:  55.88°N, 12.5°E
Report Text: EKCH 251450Z 21009KT 6000 SCT006 BKN008 11/10 Q1017 BECMG4000 BKN004
Loading
Personal Weather Stations






























Interactive Weather Map
Tropical Storm Tracking
New forecast layout! Learn more

10-Day Weather Forecast

Advertisements
Track Severe Weather on mobile